Aviation Digital Data Service (ADDS)

Output produced by TAFs form (0337 UTC 19 July 2018)
found at http://www.aviationweather.gov/adds/tafs/
 
KAPA 190253Z 16007KT 10SM SCT120 SCT220 25/09 A3014 RMK AO2 SLP127 T02500094 53004
KAPA 190053Z 1901/1924 09007KT P6SM FEW120 FEW220 
     FM190200 14009KT P6SM FEW250 
     FM190500 20008KT P6SM SKC 
     FM191500 VRB05KT P6SM FEW120 SCT220 
     FM192000 03006KT P6SM FEW110 SCT200